sensor_id;sensor_type;location;lat;lon;timestamp;P1;durP1;ratioP1;P2;durP2;ratioP2
58990;SDS011;44781;53.444;14.476;2023-03-24T00:02:28;12.00;;;7.80;;
58990;SDS011;44781;53.444;14.476;2023-03-24T00:05:52;12.80;;;7.30;;
58990;SDS011;44781;53.444;14.476;2023-03-24T00:08:56;11.30;;;7.70;;
58990;SDS011;44781;53.444;14.476;2023-03-24T00:12:13;11.50;;;7.70;;
58990;SDS011;44781;53.444;14.476;2023-03-24T00:20:31;13.00;;;8.40;;
58990;SDS011;44781;53.444;14.476;2023-03-24T00:22:59;14.20;;;8.40;;
58990;SDS011;44781;53.444;14.476;2023-03-24T00:26:44;14.20;;;9.50;;
58990;SDS011;44781;53.444;14.476;2023-03-24T00:29:39;14.40;;;9.50;;
58990;SDS011;44781;53.444;14.476;2023-03-24T00:33:03;13.20;;;8.90;;
58990;SDS011;44781;53.444;14.476;2023-03-24T00:35:37;13.50;;;8.50;;
58990;SDS011;44781;53.444;14.476;2023-03-24T00:41:47;12.30;;;8.10;;
58990;SDS011;44781;53.444;14.476;2023-03-24T01:50:35;10.90;;;8.10;;
58990;SDS011;44781;53.444;14.476;2023-03-24T01:53:11;10.80;;;8.00;;
58990;SDS011;44781;53.444;14.476;2023-03-24T05:05:37;7.30;;;4.40;;
58990;SDS011;44781;53.444;14.476;2023-03-24T05:08:18;6.70;;;4.30;;
58990;SDS011;44781;53.444;14.476;2023-03-24T05:11:08;6.00;;;3.20;;
58990;SDS011;44781;53.444;14.476;2023-03-24T05:14:14;7.80;;;4.00;;
58990;SDS011;44781;53.444;14.476;2023-03-24T05:16:49;8.10;;;5.30;;
58990;SDS011;44781;53.444;14.476;2023-03-24T05:20:03;7.60;;;4.00;;
58990;SDS011;44781;53.444;14.476;2023-03-24T05:23:05;8.80;;;4.00;;
58990;SDS011;44781;53.444;14.476;2023-03-24T05:26:08;7.00;;;3.40;;
58990;SDS011;44781;53.444;14.476;2023-03-24T05:29:44;5.60;;;3.40;;
58990;SDS011;44781;53.444;14.476;2023-03-24T05:33:15;5.40;;;3.20;;
58990;SDS011;44781;53.444;14.476;2023-03-24T05:36:21;6.60;;;2.70;;
58990;SDS011;44781;53.444;14.476;2023-03-24T05:39:38;4.70;;;3.00;;
58990;SDS011;44781;53.444;14.476;2023-03-24T05:51:10;5.30;;;3.20;;
58990;SDS011;44781;53.444;14.476;2023-03-24T05:53:53;4.80;;;2.80;;
58990;SDS011;44781;53.444;14.476;2023-03-24T05:56:53;6.60;;;3.00;;
58990;SDS011;44781;53.444;14.476;2023-03-24T05:59:34;6.20;;;3.00;;
58990;SDS011;44781;53.444;14.476;2023-03-24T06:02:37;5.80;;;2.90;;
58990;SDS011;44781;53.444;14.476;2023-03-24T06:05:13;6.50;;;3.10;;
58990;SDS011;44781;53.444;14.476;2023-03-24T06:07:41;4.50;;;2.50;;
58990;SDS011;44781;53.444;14.476;2023-03-24T06:10:09;4.50;;;2.70;;
58990;SDS011;44781;53.444;14.476;2023-03-24T06:12:45;5.20;;;2.90;;
58990;SDS011;44781;53.444;14.476;2023-03-24T06:15:15;5.30;;;2.80;;
58990;SDS011;44781;53.444;14.476;2023-03-24T06:18:32;6.80;;;3.10;;
58990;SDS011;44781;53.444;14.476;2023-03-24T06:21:43;5.50;;;3.00;;
58990;SDS011;44781;53.444;14.476;2023-03-24T06:24:56;5.40;;;2.90;;
58990;SDS011;44781;53.444;14.476;2023-03-24T06:28:13;5.70;;;2.80;;
58990;SDS011;44781;53.444;14.476;2023-03-24T06:31:04;5.00;;;2.90;;
58990;SDS011;44781;53.444;14.476;2023-03-24T06:33:35;5.00;;;2.90;;
58990;SDS011;44781;53.444;14.476;2023-03-24T06:36:11;5.30;;;3.00;;
58990;SDS011;44781;53.444;14.476;2023-03-24T06:43:38;4.80;;;3.00;;
58990;SDS011;44781;53.444;14.476;2023-03-24T06:46:30;5.20;;;2.90;;
58990;SDS011;44781;53.444;14.476;2023-03-24T06:49:18;6.50;;;3.30;;
58990;SDS011;44781;53.444;14.476;2023-03-24T06:51:48;6.60;;;4.10;;
58990;SDS011;44781;53.444;14.476;2023-03-24T06:54:58;7.20;;;4.80;;
58990;SDS011;44781;53.444;14.476;2023-03-24T06:57:32;6.20;;;4.40;;
58990;SDS011;44781;53.444;14.476;2023-03-24T07:00:38;6.70;;;4.10;;
58990;SDS011;44781;53.444;14.476;2023-03-24T07:03:25;6.40;;;3.50;;
58990;SDS011;44781;53.444;14.476;2023-03-24T07:06:19;14.90;;;11.00;;
58990;SDS011;44781;53.444;14.476;2023-03-24T07:09:01;7.70;;;4.80;;
58990;SDS011;44781;53.444;14.476;2023-03-24T07:11:31;6.80;;;3.60;;
58990;SDS011;44781;53.444;14.476;2023-03-24T07:14:03;6.60;;;3.50;;
58990;SDS011;44781;53.444;14.476;2023-03-24T07:47:51;6.60;;;3.80;;
58990;SDS011;44781;53.444;14.476;2023-03-24T07:51:54;7.00;;;4.00;;
58990;SDS011;44781;53.444;14.476;2023-03-24T07:55:05;5.90;;;3.80;;
58990;SDS011;44781;53.444;14.476;2023-03-24T07:58:20;6.90;;;3.60;;
58990;SDS011;44781;53.444;14.476;2023-03-24T08:01:24;6.20;;;3.90;;
58990;SDS011;44781;53.444;14.476;2023-03-24T08:05:28;6.50;;;3.60;;
58990;SDS011;44781;53.444;14.476;2023-03-24T08:37:37;6.20;;;3.60;;
58990;SDS011;44781;53.444;14.476;2023-03-24T08:41:34;6.90;;;3.90;;
58990;SDS011;44781;53.444;14.476;2023-03-24T08:44:39;6.40;;;4.00;;
58990;SDS011;44781;53.444;14.476;2023-03-24T08:47:11;6.50;;;4.10;;
58990;SDS011;44781;53.444;14.476;2023-03-24T08:49:54;7.10;;;3.90;;
58990;SDS011;44781;53.444;14.476;2023-03-24T09:07:49;6.30;;;3.40;;
58990;SDS011;44781;53.444;14.476;2023-03-24T09:10:20;5.80;;;3.30;;
58990;SDS011;44781;53.444;14.476;2023-03-24T09:12:55;8.40;;;3.80;;
58990;SDS011;44781;53.444;14.476;2023-03-24T09:22:15;5.90;;;3.70;;
58990;SDS011;44781;53.444;14.476;2023-03-24T16:15:20;3.40;;;1.00;;
58990;SDS011;44781;53.444;14.476;2023-03-24T16:59:57;2.40;;;1.10;;
58990;SDS011;44781;53.444;14.476;2023-03-24T17:40:05;11.20;;;7.50;;
58990;SDS011;44781;53.444;14.476;2023-03-24T17:43:31;12.00;;;7.10;;
58990;SDS011;44781;53.444;14.476;2023-03-24T18:03:25;6.20;;;2.60;;
58990;SDS011;44781;53.444;14.476;2023-03-24T18:06:21;7.30;;;2.70;;
58990;SDS011;44781;53.444;14.476;2023-03-24T18:10:01;7.30;;;3.10;;
58990;SDS011;44781;53.444;14.476;2023-03-24T18:13:09;7.80;;;2.70;;
58990;SDS011;44781;53.444;14.476;2023-03-24T18:29:36;6.40;;;2.80;;
58990;SDS011;44781;53.444;14.476;2023-03-24T18:43:40;10.50;;;5.90;;
58990;SDS011;44781;53.444;14.476;2023-03-24T20:13:06;19.40;;;13.00;;
58990;SDS011;44781;53.444;14.476;2023-03-24T20:15:55;16.10;;;8.20;;
58990;SDS011;44781;53.444;14.476;2023-03-24T20:41:20;6.50;;;2.20;;
58990;SDS011;44781;53.444;14.476;2023-03-24T20:44:44;5.60;;;2.50;;
58990;SDS011;44781;53.444;14.476;2023-03-24T20:55:15;11.30;;;4.60;;
58990;SDS011;44781;53.444;14.476;2023-03-24T20:58:29;10.70;;;5.40;;
58990;SDS011;44781;53.444;14.476;2023-03-24T21:01:15;11.60;;;5.50;;
58990;SDS011;44781;53.444;14.476;2023-03-24T21:04:08;9.70;;;5.00;;
58990;SDS011;44781;53.444;14.476;2023-03-24T21:07:28;12.60;;;4.70;;
58990;SDS011;44781;53.444;14.476;2023-03-24T21:15:26;9.70;;;4.10;;
58990;SDS011;44781;53.444;14.476;2023-03-24T21:22:45;11.00;;;5.00;;
58990;SDS011;44781;53.444;14.476;2023-03-24T21:54:57;9.30;;;3.80;;
58990;SDS011;44781;53.444;14.476;2023-03-24T21:57:51;8.70;;;3.30;;
58990;SDS011;44781;53.444;14.476;2023-03-24T22:01:04;7.60;;;2.90;;
58990;SDS011;44781;53.444;14.476;2023-03-24T22:22:25;7.60;;;2.80;;
58990;SDS011;44781;53.444;14.476;2023-03-24T22:25:50;7.30;;;3.10;;
58990;SDS011;44781;53.444;14.476;2023-03-24T23:08:42;8.50;;;3.10;;
58990;SDS011;44781;53.444;14.476;2023-03-24T23:11:32;5.80;;;2.70;;
